Uttoxeter, United Kingdom
Current Conditions -  °F | °C
As of 4:20 AM on Saturday 20 Dec 2014 (Local Time) from EGNX Reporting Station
Scattered Clouds Scattered Clouds  
Wind Chill:   Ceiling: Unl
Heat Index:   Visibility: 6mi
Dew Point:   Wind: 23mph
Humidity: 71%   Direction: 250°WSW
Pressure: 30.09"   Gusts: NA
Location:  52.9°N, 1.86°W
Report Text: EGNX 200420Z 25020KT 9999 SCT032 07/02 Q1019
Loading
Personal Weather Stations






























Interactive Weather Map New forecast layout! Learn more

10-Day Weather Forecast

Advertisements
Track Severe Weather on mobile